createdAt,value
2022-10-01T00:02:17.795Z,39.90
2022-10-01T00:07:17.737Z,35.80
2022-10-01T00:12:16.921Z,35.50
2022-10-01T00:17:16.589Z,44.00
2022-10-01T00:22:15.824Z,40.10
2022-10-01T00:27:14.820Z,40.30
2022-10-01T00:32:13.773Z,37.20
2022-10-01T00:37:14.237Z,36.70
2022-10-01T00:42:22.993Z,34.00
2022-10-01T00:47:30.498Z,32.90
2022-10-01T00:52:36.229Z,31.90
2022-10-01T00:57:36.970Z,35.60
2022-10-01T01:02:35.376Z,28.60
2022-10-01T01:07:37.482Z,28.20
2022-10-01T01:12:56.685Z,30.50
2022-10-01T01:18:09.491Z,34.50
2022-10-01T01:23:32.188Z,32.80
2022-10-01T01:28:37.548Z,32.80
2022-10-01T01:33:41.158Z,30.20
2022-10-01T01:38:48.688Z,28.20
2022-10-01T01:43:53.855Z,28.60
2022-10-01T01:48:57.787Z,25.80
2022-10-01T01:53:57.348Z,29.70
2022-10-01T01:58:58.495Z,26.10
2022-10-01T02:03:58.606Z,25.00
2022-10-01T02:09:12.351Z,26.30
2022-10-01T02:14:35.468Z,31.50
2022-10-01T02:19:45.408Z,32.20
2022-10-01T02:24:49.706Z,28.60
2022-10-01T02:29:51.848Z,27.10
2022-10-01T02:34:54.017Z,22.10
2022-10-01T02:39:58.230Z,27.30
2022-10-01T02:45:03.191Z,26.00
2022-10-01T02:50:02.615Z,23.60
2022-10-01T02:55:08.817Z,28.60
2022-10-01T03:00:13.956Z,25.30
2022-10-01T03:05:14.834Z,23.80
2022-10-01T03:10:16.535Z,23.20
2022-10-01T03:15:19.384Z,26.50
2022-10-01T03:20:19.304Z,23.90
2022-10-01T03:25:19.176Z,26.80
2022-10-01T03:30:18.542Z,23.80
2022-10-01T03:35:17.682Z,28.40
2022-10-01T03:40:16.916Z,28.60
2022-10-01T03:45:17.931Z,28.30
2022-10-01T03:50:16.585Z,30.80
2022-10-01T03:55:16.055Z,24.60
2022-10-01T04:00:18.507Z,22.80
2022-10-01T04:05:17.197Z,25.40
2022-10-01T04:10:16.296Z,26.40
2022-10-01T04:15:16.943Z,25.50
2022-10-01T04:20:15.893Z,26.50
2022-10-01T04:25:15.804Z,26.00
2022-10-01T04:30:15.651Z,25.80
2022-10-01T04:35:14.561Z,22.60
2022-10-01T04:40:13.784Z,23.80
2022-10-01T04:45:15.846Z,24.10
2022-10-01T04:50:15.908Z,23.00
2022-10-01T04:55:21.020Z,23.30
2022-10-01T05:00:24.629Z,23.90
2022-10-01T05:05:28.210Z,25.00
2022-10-01T05:10:30.200Z,24.20
2022-10-01T05:15:29.494Z,22.60
2022-10-01T05:20:30.494Z,21.80
2022-10-01T05:25:29.695Z,21.30
2022-10-01T05:30:28.950Z,23.70
2022-10-01T05:35:28.778Z,23.50
2022-10-01T05:40:28.886Z,19.80
2022-10-01T05:45:30.901Z,17.90
2022-10-01T05:50:31.383Z,17.00
2022-10-01T05:55:33.544Z,18.70
2022-10-01T06:00:34.373Z,21.60
2022-10-01T06:05:35.488Z,23.90
2022-10-01T06:10:37.062Z,27.20
2022-10-01T06:15:38.906Z,25.40
2022-10-01T06:20:38.732Z,27.00
2022-10-01T06:25:38.559Z,25.80
2022-10-01T06:30:40.850Z,31.80
2022-10-01T06:35:44.632Z,30.10
2022-10-01T06:40:44.421Z,29.10
2022-10-01T06:45:44.160Z,31.70
2022-10-01T06:50:44.038Z,37.80
2022-10-01T06:55:43.728Z,34.00
2022-10-01T07:00:45.129Z,33.70
2022-10-01T07:05:44.688Z,33.20
2022-10-01T07:10:45.775Z,35.00
2022-10-01T07:15:45.682Z,32.90
2022-10-01T07:20:44.782Z,33.30
2022-10-01T07:25:45.148Z,31.30
2022-10-01T07:30:44.743Z,31.60
2022-10-01T07:35:43.920Z,29.50
2022-10-01T07:40:42.109Z,26.80
2022-10-01T07:45:42.767Z,22.70
2022-10-01T07:50:44.024Z,24.00
2022-10-01T07:55:44.157Z,23.40
2022-10-01T08:00:43.984Z,22.20
2022-10-01T08:05:46.644Z,21.70
2022-10-01T08:10:45.263Z,25.30
2022-10-01T08:15:44.234Z,22.50
2022-10-01T08:20:44.442Z,23.60
2022-10-01T08:25:44.819Z,24.30
2022-10-01T08:30:45.210Z,21.20
2022-10-01T08:35:46.038Z,17.40
2022-10-01T08:40:51.294Z,16.70
2022-10-01T08:45:57.584Z,15.90
2022-10-01T08:51:05.045Z,15.10
2022-10-01T08:56:08.410Z,18.60
2022-10-01T09:01:07.630Z,13.20
2022-10-01T09:06:21.328Z,12.70
2022-10-01T09:11:50.240Z,13.60
2022-10-01T09:17:03.790Z,16.30
2022-10-01T09:22:07.693Z,14.70
2022-10-01T09:27:15.434Z,13.90
2022-10-01T09:32:19.499Z,14.70
2022-10-01T09:37:39.748Z,14.80
2022-10-01T09:42:38.826Z,11.40
2022-10-01T09:47:38.012Z,14.50
2022-10-01T09:52:40.881Z,14.40
2022-10-01T09:57:47.655Z,15.10
2022-10-01T10:02:50.119Z,15.40
2022-10-01T10:07:53.965Z,16.80
2022-10-01T10:12:59.285Z,15.00
2022-10-01T10:18:06.594Z,17.20
2022-10-01T10:23:20.565Z,14.90
2022-10-01T10:28:48.216Z,17.20
2022-10-01T10:33:57.659Z,17.10
2022-10-01T10:39:00.426Z,14.20
2022-10-01T10:44:04.970Z,13.20
2022-10-01T10:49:19.380Z,14.80
2022-10-01T10:54:29.672Z,15.40
2022-10-01T10:59:29.130Z,15.20
2022-10-01T11:04:39.555Z,15.60
2022-10-01T11:09:59.309Z,14.60
2022-10-01T11:15:21.035Z,16.80
2022-10-01T11:20:34.812Z,17.30
2022-10-01T11:25:51.322Z,16.40
2022-10-01T11:31:06.634Z,18.10
2022-10-01T11:36:16.032Z,16.90
2022-10-01T11:41:42.632Z,18.10
2022-10-01T11:46:53.631Z,17.10
2022-10-01T11:52:04.098Z,15.40
2022-10-01T11:57:28.702Z,13.20
2022-10-01T12:02:36.439Z,11.60
2022-10-01T12:07:46.254Z,11.90
2022-10-01T12:12:52.508Z,9.40
2022-10-01T12:18:00.178Z,10.30
2022-10-01T12:23:04.143Z,9.80
2022-10-01T12:28:12.321Z,10.40
2022-10-01T12:33:37.389Z,10.10
2022-10-01T12:38:55.637Z,9.20
2022-10-01T12:44:11.571Z,9.80
2022-10-01T12:49:25.990Z,9.70
2022-10-01T12:54:51.844Z,7.10
2022-10-01T13:00:10.168Z,8.90
2022-10-01T13:05:27.996Z,8.40
2022-10-01T13:10:48.967Z,8.00
2022-10-01T13:15:59.256Z,8.40
2022-10-01T13:21:14.671Z,8.70
2022-10-01T13:26:21.206Z,7.10
2022-10-01T13:31:21.786Z,7.40
2022-10-01T13:36:34.504Z,7.30
2022-10-01T13:41:36.813Z,7.40
2022-10-01T13:46:53.523Z,6.40
2022-10-01T13:51:53.215Z,6.90
2022-10-01T13:56:51.905Z,8.00
2022-10-01T14:01:50.663Z,6.90
2022-10-01T14:06:55.000Z,6.40
2022-10-01T14:12:21.170Z,6.30
2022-10-01T14:17:26.583Z,7.60
2022-10-01T14:23:12.503Z,6.30
2022-10-01T14:28:42.977Z,6.70
2022-10-01T14:34:15.947Z,7.10
2022-10-01T14:39:22.045Z,5.80
2022-10-01T14:44:28.241Z,5.70
2022-10-01T14:49:32.006Z,7.60
2022-10-01T14:54:39.257Z,7.10
2022-10-01T14:59:42.484Z,7.90
2022-10-01T15:04:49.666Z,7.60
2022-10-01T15:09:51.435Z,7.50
2022-10-01T15:14:54.715Z,8.80
2022-10-01T15:19:58.791Z,10.20
2022-10-01T15:25:02.749Z,10.20
2022-10-01T15:30:03.048Z,10.20
2022-10-01T15:35:05.687Z,10.90
2022-10-01T15:40:09.801Z,11.40
2022-10-01T15:45:30.167Z,10.90
2022-10-01T15:50:32.620Z,13.80
2022-10-01T15:55:39.134Z,11.50
2022-10-01T16:00:57.101Z,12.70
2022-10-01T16:05:58.648Z,11.80
2022-10-01T16:11:20.924Z,13.60
2022-10-01T16:16:30.643Z,13.20
2022-10-01T16:21:30.569Z,13.70
2022-10-01T16:26:52.519Z,16.40
2022-10-01T16:31:52.891Z,19.40
2022-10-01T16:36:52.358Z,17.70
2022-10-01T16:42:19.125Z,18.10
2022-10-01T16:47:16.492Z,17.90
2022-10-01T16:52:18.230Z,18.10
2022-10-01T16:57:18.181Z,18.40
2022-10-01T17:02:18.950Z,18.60
2022-10-01T17:07:18.335Z,18.70
2022-10-01T17:12:17.803Z,17.70
2022-10-01T17:17:19.503Z,17.40
2022-10-01T17:22:18.596Z,15.90
2022-10-01T17:27:18.043Z,17.60
2022-10-01T17:32:19.128Z,17.60
2022-10-01T17:37:18.751Z,18.40
2022-10-01T17:42:18.321Z,19.10
2022-10-01T17:47:17.070Z,19.80
2022-10-01T17:52:15.623Z,21.90
2022-10-01T17:57:17.627Z,20.00
2022-10-01T18:02:40.538Z,19.60
2022-10-01T18:07:37.866Z,20.90
2022-10-01T18:12:36.973Z,21.20
2022-10-01T18:17:42.928Z,19.70
2022-10-01T18:22:42.697Z,21.20
2022-10-01T18:27:41.600Z,21.70
2022-10-01T18:32:44.554Z,19.70
2022-10-01T18:37:51.483Z,19.90
2022-10-01T18:42:56.579Z,20.30
2022-10-01T18:48:15.927Z,21.90
2022-10-01T18:53:37.309Z,25.20
2022-10-01T18:59:02.384Z,25.20
2022-10-01T19:04:29.983Z,28.90
2022-10-01T19:09:52.110Z,24.60
2022-10-01T19:15:12.973Z,24.40
2022-10-01T19:20:46.325Z,28.90
2022-10-01T19:25:55.470Z,31.40
2022-10-01T19:31:14.680Z,31.60
2022-10-01T19:36:30.399Z,34.80
2022-10-01T19:41:45.749Z,27.90
2022-10-01T19:46:48.486Z,33.50
2022-10-01T19:51:57.205Z,25.30
2022-10-01T19:57:02.452Z,30.10
2022-10-01T20:02:15.958Z,33.80
2022-10-01T20:07:22.908Z,35.40
2022-10-01T20:12:34.578Z,33.60
2022-10-01T20:17:46.476Z,30.50
2022-10-01T20:23:05.709Z,30.00
2022-10-01T20:28:21.221Z,29.10
2022-10-01T20:33:28.493Z,29.70
2022-10-01T20:38:35.041Z,32.30
2022-10-01T20:43:49.137Z,33.80
2022-10-01T20:48:52.883Z,31.80
2022-10-01T20:53:58.757Z,29.80
2022-10-01T20:59:07.124Z,29.60
2022-10-01T21:04:12.269Z,31.50
2022-10-01T21:09:26.351Z,33.00
2022-10-01T21:14:30.286Z,28.60
2022-10-01T21:19:56.513Z,30.70
2022-10-01T21:25:12.083Z,27.50
2022-10-01T21:30:16.637Z,23.40
2022-10-01T21:35:32.087Z,25.50
2022-10-01T21:40:44.700Z,23.60
2022-10-01T21:45:56.298Z,29.80
2022-10-01T21:51:07.468Z,23.80
2022-10-01T21:56:38.621Z,11.20
2022-10-01T22:02:07.307Z,24.20
2022-10-01T22:07:19.243Z,23.70
2022-10-01T22:12:18.871Z,23.40
2022-10-01T22:17:25.258Z,18.80
2022-10-01T22:22:30.952Z,18.20
2022-10-01T22:27:35.421Z,20.00
2022-10-01T22:32:41.753Z,19.50
2022-10-01T22:37:49.543Z,18.20
2022-10-01T22:43:00.066Z,17.10
2022-10-01T22:48:16.895Z,19.30
2022-10-01T22:53:39.382Z,20.50
2022-10-01T22:59:06.587Z,20.50
2022-10-01T23:04:29.343Z,17.00
2022-10-01T23:09:41.678Z,15.90
2022-10-01T23:14:57.164Z,16.10
2022-10-01T23:20:11.074Z,12.80
2022-10-01T23:25:26.044Z,10.90
2022-10-01T23:30:26.134Z,13.10
2022-10-01T23:35:33.297Z,15.30
2022-10-01T23:40:36.318Z,12.60
2022-10-01T23:45:43.392Z,13.00
2022-10-01T23:50:50.829Z,7.80
2022-10-01T23:56:22.716Z,9.30
